Nelspruit, South Africa

10:20 PM SAST on September 02, 2014 (GMT +0200)
IMPUMALA11 | Change Station
CLOSE
Current Station
Personal Weather Station
Location: Nelspruit, MPUMALANGA
Elevation: 2552 ft
Nearby Weather Stations

Elev 2552 ft 25.49 °S, 30.99 °E | Updated 16 seconds ago

Cloudy
Cloudy
61.0 °F
Feels Like 61.0 °F
N
0.0
Wind Variable Wind from SSW
Gusts 0.0 mph

Today
High -- | Low -- °F
--% Chance of Precip.
Yesterday
High -- | Low -- °F
Precip. -- in
6:07 AM 5:44 PM
First Quarter, 54% visible
Pressure 30.39 in
Visibility -9999.0 miles
Clouds
Dew Point 42 °F
Humidity 50%
Rainfall 0.00 in
Snow Depth Not available.
UV Not available.
Pollen Not available.
Air Quality Not available.
Flu Activity Not available.
METAR FAKN 022000Z AUTO 07008KT //// // ////// 12/09 Q1029

More Conditions Fewer Conditions

Pressure 30.39 in
Visibility -9999.0 miles
Clouds
Dew Point 42 °F
Humidity 50%
Rainfall 0.00 in
Snow Depth Not available.
UV Not available.
Pollen Not available.
Air Quality Not available.
Flu Activity Not available.
METAR FAKN 022000Z AUTO 07008KT //// // ////// 12/09 Q1029

More Conditions Fewer Conditions

10-Day Weather Forecast

Almanac

Astronomy

Sep. 02, 2014 Rise Set
Actual Time 6:07 AM SAST 5:44 PM SAST
Civil Twilight 5:44 AM SAST 6:07 PM SAST
Nautical Twilight 5:17 AM SAST 6:34 PM SAST
Astronomical Twilight 4:51 AM SAST 7:01 PM SAST
Moon 11:06 AM SAST No Moon Set
Length of Visible Light 12h 23m
Length of Day
11h 37m
Tomorrow will be 1m 25s longer.
First Quarter, 54% of the Moon is Illuminated
Today
First Quarter
Sep 8
Full
Sep 15
Last Quarter
Sep 24
New
Oct 1
First Quarter

Today's Extremes

Country Highs Country Lows

Community

WunderPhotos

Upload Photos

1,749,757 photos uploaded!

WunderBlogs® & News

By Dr. Jeff Masters
Director of Meteorology, Weather Underground
By Kari Strenfel
Meteorologist, Weather Underground
By Christopher C. Burt
Weather Historian, Weather Underground
September 2, 2014
September 2, 2014
September 2, 2014

Nearby

Snow Depth

Not available.

Earthquake Activity

City Distance Mag. Time & Date
No recent earthquake activity has been reported nearby.
Minimum magnitude displayed is 2.5.

Coastal Water Temperatures

Place Temperature
No Stations Reporting

Nearby Weather Stations